Milwaukee, Wisconsin
Traffic Map
Current Weather Conditions
Milwaukee, Wisconsin
Broken Clouds
Broken Clouds
43°
Feels Like: 39°
Wind Chill: 39° Ceiling: 25000
Heat Index: 43° Visibility: 10mi
Dew Point: 35° Wind: 6mph
Humidity: 74% Direction: 360° (N)
Pressure: 30.28in Gusts: 0mph
Raw Report DataKMKE 180552Z 36005KT 10SM BKN250 06/02 A3028 RMK AO2 SLP257 T00610017 10128 20061 401330039 53008
Traffic Incident Summary
Active as of:
Severity:
Category:
InformationThere was an issue retrieving the traffic information for this location. Please try a different location or try again shortly.
Advertisements
At Last! Intellicast now available for iPhone and Android